Time;durP1;ratioP1;P1;durP2;ratioP2;P2;SDS_P1;SDS_P2;PMS_P1;PMS_P2;Temp;Humidity;BMP_temperature;BMP_pressure;BME280_temperature;BME280_humidity;BME280_pressure;Samples;Min_cycle;Max_cycle;Signal;HPM_P1;HPM_P2
2021/08/15 00:01:09;;;;;;;7.30;6.60;;;;;;;21.23;70.17;96704.40;1800098;78;21027;-84
2021/08/15 00:03:35;;;;;;;11.38;6.87;;;;;;;21.22;70.17;96696.20;1809997;78;21533;-84
2021/08/15 00:06:01;;;;;;;6.83;6.12;;;;;;;21.21;70.28;96697.23;1802629;78;21027;-84
2021/08/15 00:08:26;;;;;;;9.43;7.30;;;;;;;21.19;70.46;96696.69;1800917;78;21014;-84
2021/08/15 00:10:52;;;;;;;9.18;6.97;;;;;;;21.17;70.50;96697.45;1794099;78;22045;-84
2021/08/15 00:13:18;;;;;;;8.83;6.60;;;;;;;21.13;70.67;96698.42;1802546;78;20955;-84
2021/08/15 00:15:44;;;;;;;8.85;6.45;;;;;;;21.10;70.72;96699.44;1795858;78;20987;-84
2021/08/15 00:18:10;;;;;;;7.37;6.55;;;;;;;21.08;70.74;96697.03;1790674;78;21060;-84
2021/08/15 00:20:35;;;;;;;8.00;6.75;;;;;;;21.08;70.84;96694.39;1793119;78;20961;-84
2021/08/15 00:23:01;;;;;;;7.22;6.53;;;;;;;21.08;70.73;96692.27;1797991;78;20972;-84
2021/08/15 00:25:27;;;;;;;8.23;6.40;;;;;;;21.07;70.79;96691.47;1793198;78;21370;-84
2021/08/15 00:27:52;;;;;;;8.55;7.20;;;;;;;21.04;70.80;96695.92;1795766;78;20949;-85
2021/08/15 00:30:18;;;;;;;10.38;7.08;;;;;;;21.01;71.01;96689.00;1796363;78;21013;-84
2021/08/15 00:32:45;;;;;;;9.43;6.75;;;;;;;20.98;71.16;96684.97;1794532;78;21051;-84
2021/08/15 00:35:11;;;;;;;9.68;7.03;;;;;;;20.92;71.21;96680.66;1795862;78;20936;-84
2021/08/15 00:37:36;;;;;;;7.33;6.62;;;;;;;20.96;71.23;96689.70;1796524;78;21027;-84
2021/08/15 00:40:05;;;;;;;7.08;6.37;;;;;;;20.94;71.27;96688.62;1798380;78;21374;-84
2021/08/15 00:42:31;;;;;;;9.45;6.60;;;;;;;20.90;71.49;96692.78;1762122;80;20932;-84
2021/08/15 00:44:56;;;;;;;10.28;7.28;;;;;;;20.86;71.55;96691.67;1731183;81;20954;-84
2021/08/15 00:47:22;;;;;;;8.20;7.00;;;;;;;20.82;71.57;96695.00;1739861;80;21035;-83
2021/08/15 00:49:48;;;;;;;10.85;6.92;;;;;;;20.80;71.64;96695.25;1798228;78;21322;-84
2021/08/15 00:52:14;;;;;;;8.08;7.25;;;;;;;20.78;71.72;96693.37;1796355;78;20983;-84
2021/08/15 00:54:39;;;;;;;10.45;7.53;;;;;;;20.77;71.68;96693.61;1747068;79;21273;-84
2021/08/15 00:57:06;;;;;;;9.23;7.58;;;;;;;20.74;71.76;96692.25;1794018;78;20897;-84
2021/08/15 00:59:33;;;;;;;9.10;7.08;;;;;;;20.73;72.04;96692.48;1794544;78;21082;-84
2021/08/15 01:01:59;;;;;;;7.95;7.15;;;;;;;20.70;72.36;96685.85;1766660;78;20925;-84
2021/08/15 01:04:25;;;;;;;9.18;6.97;;;;;;;20.66;72.39;96688.17;1792429;78;21038;-84
2021/08/15 01:06:51;;;;;;;7.80;6.97;;;;;;;20.65;72.48;96685.74;1766104;79;22085;-84
2021/08/15 01:09:17;;;;;;;8.60;6.70;;;;;;;20.64;72.48;96688.10;1792588;78;21066;-84
2021/08/15 01:11:43;;;;;;;9.33;7.22;;;;;;;20.63;72.69;96691.78;1791751;78;20964;-84
2021/08/15 01:14:09;;;;;;;7.70;6.90;;;;;;;20.58;72.81;96688.55;1797958;78;21434;-84
2021/08/15 01:16:39;;;;;;;7.97;6.95;;;;;;;20.54;72.91;96686.63;1791705;78;20940;-85
2021/08/15 01:19:11;;;;;;;8.38;6.50;;;;;;;20.52;72.83;96684.74;1799780;78;20979;-84
2021/08/15 01:21:46;;;;;;;8.70;6.85;;;;;;;20.50;72.70;96690.27;1796248;78;21008;-84
2021/08/15 01:24:12;;;;;;;8.83;6.87;;;;;;;20.48;72.86;96680.43;1797181;78;21402;-84
2021/08/15 01:26:39;;;;;;;8.43;7.62;;;;;;;20.47;73.10;96683.31;1795092;78;20964;-84
2021/08/15 01:29:05;;;;;;;8.75;7.30;;;;;;;20.41;73.20;96683.75;1793214;78;20999;-84
2021/08/15 01:31:31;;;;;;;8.08;7.28;;;;;;;20.36;73.20;96679.67;1801746;78;20975;-84
2021/08/15 01:33:57;;;;;;;8.83;6.58;;;;;;;20.34;73.45;96679.91;1798910;78;20959;-84
2021/08/15 01:36:23;;;;;;;9.08;6.47;;;;;;;20.33;73.52;96684.08;1804020;78;21490;-84
2021/08/15 01:38:50;;;;;;;7.90;6.85;;;;;;;20.32;73.41;96679.84;1798150;78;20995;-84
2021/08/15 01:41:16;;;;;;;8.95;6.70;;;;;;;20.31;73.47;96676.92;1798235;78;20949;-84
2021/08/15 01:43:53;;;;;;;8.50;7.15;;;;;;;20.28;73.50;96675.56;1799260;78;21078;-84
2021/08/15 01:46:20;;;;;;;8.50;7.42;;;;;;;20.24;73.45;96678.91;1789616;78;20972;-84
2021/08/15 01:48:46;;;;;;;10.43;7.12;;;;;;;20.19;73.70;96677.51;1797508;78;20976;-84
2021/08/15 01:51:14;;;;;;;9.65;6.83;;;;;;;20.17;73.76;96677.72;1795505;78;20994;-84
2021/08/15 01:53:40;;;;;;;7.67;6.72;;;;;;;20.15;74.03;96673.20;1799357;78;20971;-84
2021/08/15 01:56:06;;;;;;;7.78;7.08;;;;;;;20.15;73.86;96674.52;1800776;78;21023;-84
2021/08/15 01:58:32;;;;;;;8.00;7.30;;;;;;;20.13;73.74;96671.31;1795226;78;21004;-84
2021/08/15 02:00:58;;;;;;;9.10;7.62;;;;;;;20.11;73.81;96672.59;1801644;78;22194;-84
2021/08/15 02:03:24;;;;;;;8.73;6.83;;;;;;;20.07;73.88;96665.15;1793800;78;20917;-83
2021/08/15 02:05:49;;;;;;;8.43;7.35;;;;;;;19.98;74.15;96649.91;1786307;78;21089;-84
2021/08/15 02:08:15;;;;;;;7.85;6.87;;;;;;;20.04;74.32;96659.55;1800137;78;21008;-84
2021/08/15 02:10:41;;;;;;;8.10;6.90;;;;;;;20.03;74.42;96662.70;1798548;78;21436;-84
2021/08/15 02:13:07;;;;;;;8.13;7.20;;;;;;;20.03;74.22;96656.63;1771422;78;20948;-84
2021/08/15 02:15:33;;;;;;;9.18;7.40;;;;;;;20.02;74.52;96658.47;1801695;78;20955;-84
2021/08/15 02:18:00;;;;;;;8.98;7.35;;;;;;;20.02;74.61;96657.66;1798892;78;21466;-84
2021/08/15 02:20:28;;;;;;;9.18;7.25;;;;;;;20.00;74.70;96654.44;1800214;78;20975;-84
2021/08/15 02:22:54;;;;;;;9.00;7.40;;;;;;;19.97;74.62;96654.39;1800407;78;21859;-84
2021/08/15 02:25:21;;;;;;;8.40;7.55;;;;;;;19.97;74.93;96649.63;1792306;78;20960;-84
2021/08/15 02:27:47;;;;;;;7.55;6.85;;;;;;;19.97;75.07;96647.80;1796108;78;20939;-84
2021/08/15 02:30:14;;;;;;;7.90;7.15;;;;;;;19.97;74.93;96650.95;1798567;78;21386;-84
2021/08/15 02:32:40;;;;;;;9.48;6.90;;;;;;;19.97;74.77;96641.72;1796076;78;20938;-84
2021/08/15 02:35:07;;;;;;;10.55;7.20;;;;;;;19.94;74.73;96637.72;1795065;78;21343;-84
2021/08/15 02:37:34;;;;;;;7.80;7.00;;;;;;;19.93;74.93;96637.95;1801216;78;21047;-84
2021/08/15 02:40:00;;;;;;;9.45;7.22;;;;;;;19.91;74.84;96642.67;1797369;78;20916;-84
2021/08/15 02:42:30;;;;;;;8.13;6.42;;;;;;;19.89;74.86;96633.67;1793180;78;20988;-84
2021/08/15 02:44:56;;;;;;;7.95;6.87;;;;;;;19.89;74.67;96638.16;1805818;78;22075;-84
2021/08/15 02:47:21;;;;;;;8.63;6.87;;;;;;;19.88;74.33;96637.34;1797644;78;21013;-84
2021/08/15 02:49:48;;;;;;;7.50;6.65;;;;;;;19.86;74.10;96642.06;1804203;78;21035;-84
2021/08/15 02:52:13;;;;;;;7.50;6.67;;;;;;;19.83;74.13;96631.95;1798727;78;21296;-84
2021/08/15 02:54:39;;;;;;;7.28;6.47;;;;;;;19.78;74.10;96633.98;1776688;78;21001;-84
2021/08/15 02:57:05;;;;;;;7.62;6.83;;;;;;;19.75;73.93;96634.45;1804936;77;21087;-84
2021/08/15 02:59:33;;;;;;;8.23;6.00;;;;;;;19.73;73.89;96630.45;1802379;78;20996;-84
2021/08/15 03:01:58;;;;;;;7.08;6.37;;;;;;;19.71;73.80;96628.57;1797031;78;20980;-84
2021/08/15 03:04:24;;;;;;;7.03;6.42;;;;;;;19.70;73.35;96626.45;1801227;78;21005;-84
2021/08/15 03:06:49;;;;;;;8.33;6.62;;;;;;;19.68;73.15;96631.13;1793289;78;21496;-84
2021/08/15 03:09:15;;;;;;;6.75;6.15;;;;;;;19.65;73.14;96630.80;1797586;78;21000;-84
2021/08/15 03:11:41;;;;;;;7.35;6.28;;;;;;;19.62;73.06;96628.64;1800613;78;20949;-84
2021/08/15 03:14:06;;;;;;;7.53;6.70;;;;;;;19.58;72.78;96620.40;1797755;78;21435;-84
2021/08/15 03:16:32;;;;;;;7.12;6.42;;;;;;;19.57;73.00;96625.39;1796376;78;20936;-84
2021/08/15 03:18:58;;;;;;;7.40;6.70;;;;;;;19.57;73.18;96611.41;1802072;78;21311;-84
2021/08/15 03:21:29;;;;;;;8.43;7.05;;;;;;;19.58;73.34;96615.13;1792442;77;21342;-84
2021/08/15 03:23:54;;;;;;;7.92;7.12;;;;;;;19.55;73.47;96602.42;1800822;78;21061;-84
2021/08/15 03:26:20;;;;;;;8.13;7.15;;;;;;;19.59;73.72;96606.19;1799790;77;21024;-84
2021/08/15 03:28:45;;;;;;;8.15;7.35;;;;;;;19.59;74.20;96606.19;1794666;78;21372;-84
2021/08/15 03:31:11;;;;;;;9.20;7.12;;;;;;;19.59;74.28;96604.06;1802106;78;21120;-84
2021/08/15 03:33:37;;;;;;;10.28;8.33;;;;;;;19.63;74.46;96606.52;1798368;78;21024;-84
2021/08/15 03:36:03;;;;;;;7.65;6.70;;;;;;;19.63;74.46;96606.52;1796481;77;21057;-84
2021/08/15 03:38:29;;;;;;;8.73;7.22;;;;;;;19.65;74.61;96609.20;1800862;78;21027;-84
2021/08/15 03:40:55;;;;;;;8.15;7.30;;;;;;;19.69;75.06;96602.96;1799468;78;21070;-84
2021/08/15 03:43:21;;;;;;;7.72;6.90;;;;;;;19.70;75.18;96603.25;1771546;78;20925;-84
2021/08/15 03:45:47;;;;;;;8.43;6.72;;;;;;;19.73;75.65;96596.98;1768443;80;21006;-83
2021/08/15 03:48:12;;;;;;;8.00;7.10;;;;;;;19.76;75.94;96595.70;1737954;81;21432;-84
2021/08/15 03:50:38;;;;;;;8.45;7.12;;;;;;;19.80;76.13;96591.56;1742822;80;21001;-84
2021/08/15 03:53:04;;;;;;;7.97;7.08;;;;;;;19.86;76.35;96597.75;1760592;80;20951;-84
2021/08/15 03:55:29;;;;;;;8.53;6.62;;;;;;;19.90;76.75;96596.23;1764218;80;21918;-83
2021/08/15 03:57:55;;;;;;;10.20;7.25;;;;;;;19.94;76.50;96598.16;1796780;78;20971;-83
2021/08/15 04:00:21;;;;;;;8.48;7.42;;;;;;;19.98;76.62;96591.38;1794294;78;21002;-84
2021/08/15 04:02:47;;;;;;;9.65;7.33;;;;;;;20.00;76.83;96587.98;1798663;78;21028;-84
2021/08/15 04:05:13;;;;;;;10.38;7.28;;;;;;;20.02;77.15;96589.09;1797075;79;20999;-84
2021/08/15 04:07:39;;;;;;;7.90;7.10;;;;;;;20.03;77.38;96585.41;1795954;78;21271;-84
2021/08/15 04:10:08;;;;;;;9.25;7.60;;;;;;;20.06;77.57;96583.09;1802945;78;21011;-83
2021/08/15 04:12:33;;;;;;;7.60;6.80;;;;;;;20.11;77.74;96573.14;1793833;78;21380;-84
2021/08/15 04:14:59;;;;;;;7.67;6.90;;;;;;;20.18;77.77;96576.45;1796331;78;20990;-84
2021/08/15 04:17:24;;;;;;;7.12;6.20;;;;;;;20.25;77.73;96576.30;1794931;78;20968;-84
2021/08/15 04:19:50;;;;;;;9.58;7.37;;;;;;;20.28;77.79;96566.06;1790281;78;21379;-84
2021/08/15 04:22:16;;;;;;;7.90;7.00;;;;;;;20.35;77.93;96576.48;1794653;78;21007;-84
2021/08/15 04:24:42;;;;;;;9.53;7.33;;;;;;;20.38;77.93;96576.00;1797805;78;20960;-84
2021/08/15 04:27:07;;;;;;;8.70;7.75;;;;;;;20.38;77.95;96572.03;1798816;78;20949;-84
2021/08/15 04:29:39;;;;;;;10.40;7.70;;;;;;;20.40;78.05;96568.63;1797718;78;20998;-84
2021/08/15 04:32:04;;;;;;;9.93;7.03;;;;;;;20.42;78.15;96571.06;1788493;78;21483;-84
2021/08/15 04:34:30;;;;;;;8.68;7.10;;;;;;;20.44;78.29;96568.46;1797979;78;21020;-84
2021/08/15 04:36:56;;;;;;;8.48;7.58;;;;;;;20.46;78.42;96566.38;1788612;78;21439;-84
2021/08/15 04:39:21;;;;;;;9.45;6.95;;;;;;;20.52;78.34;96564.64;1795989;78;21043;-84
2021/08/15 04:41:47;;;;;;;11.50;7.75;;;;;;;20.59;78.33;96567.91;1799804;78;21067;-84
2021/08/15 04:44:13;;;;;;;10.32;7.17;;;;;;;20.66;78.30;96568.53;1799223;78;21409;-84
2021/08/15 04:46:39;;;;;;;8.05;7.25;;;;;;;20.73;78.43;96557.30;1801042;78;21032;-83
2021/08/15 04:49:04;;;;;;;10.03;7.95;;;;;;;20.73;78.43;96557.30;1799790;78;21002;-84
2021/08/15 04:51:30;;;;;;;9.85;7.15;;;;;;;20.77;78.44;96559.73;1798201;77;21075;-84
2021/08/15 04:53:56;;;;;;;9.80;7.35;;;;;;;20.82;78.49;96560.32;1797089;78;21019;-84
2021/08/15 04:56:22;;;;;;;9.10;7.25;;;;;;;20.86;78.69;96560.14;1802017;77;20999;-84
2021/08/15 04:58:48;;;;;;;8.38;6.87;;;;;;;20.92;78.49;96560.48;1799848;78;21354;-84
2021/08/15 05:01:14;;;;;;;10.10;7.55;;;;;;;20.98;78.34;96557.66;1769648;80;21022;-84
2021/08/15 05:03:40;;;;;;;8.50;7.70;;;;;;;21.08;78.35;96561.49;1768154;80;21012;-84
2021/08/15 05:06:05;;;;;;;9.25;7.28;;;;;;;21.15;78.37;96561.61;1770428;79;20955;-84
2021/08/15 05:08:32;;;;;;;7.92;6.87;;;;;;;21.17;78.44;96560.84;1765429;80;21009;-84
2021/08/15 05:11:01;;;;;;;9.08;6.95;;;;;;;21.21;78.42;96567.75;1765803;79;20958;-84
2021/08/15 05:13:27;;;;;;;7.37;6.67;;;;;;;21.24;78.48;96559.33;1769868;80;21243;-84
2021/08/15 05:15:53;;;;;;;10.20;7.58;;;;;;;21.27;78.37;96557.03;1767323;79;21343;-84
2021/08/15 05:18:18;;;;;;;8.78;7.85;;;;;;;21.32;78.49;96562.13;1759353;81;20993;-84
2021/08/15 05:20:44;;;;;;;9.75;7.53;;;;;;;21.36;78.62;96560.05;1790695;78;20973;-84
2021/08/15 05:23:10;;;;;;;8.00;7.15;;;;;;;21.44;78.34;96560.13;1805724;78;22209;-84
2021/08/15 05:25:36;;;;;;;9.65;7.75;;;;;;;21.50;78.38;96561.30;1799921;78;20971;-84
2021/08/15 05:28:03;;;;;;;8.63;7.62;;;;;;;21.54;78.45;96562.39;1800125;78;20942;-84
2021/08/15 05:30:29;;;;;;;7.60;6.90;;;;;;;21.55;78.35;96556.05;1800650;78;20988;-84
2021/08/15 05:32:55;;;;;;;10.98;7.00;;;;;;;21.60;78.36;96557.95;1797260;77;20968;-84
2021/08/15 05:35:20;;;;;;;9.48;7.62;;;;;;;21.66;78.39;96554.86;1804207;78;20930;-84
2021/08/15 05:37:46;;;;;;;11.22;7.83;;;;;;;21.69;78.15;96558.33;1801078;77;21399;-84
2021/08/15 05:40:12;;;;;;;7.87;7.08;;;;;;;21.75;78.53;96557.33;1806346;77;21493;-84
2021/08/15 05:42:38;;;;;;;10.25;7.45;;;;;;;21.75;78.36;96552.83;1793854;78;21000;-84
2021/08/15 05:45:05;;;;;;;9.45;7.20;;;;;;;21.78;78.46;96554.18;1791983;78;20952;-84
2021/08/15 05:47:31;;;;;;;7.78;6.92;;;;;;;21.82;78.60;96559.27;1792363;78;20988;-84
2021/08/15 05:49:57;;;;;;;7.40;6.70;;;;;;;21.86;78.45;96551.11;1795388;78;21020;-84
2021/08/15 05:52:24;;;;;;;7.72;6.85;;;;;;;21.91;78.50;96553.80;1794018;78;21418;-84
2021/08/15 05:54:51;;;;;;;8.38;7.05;;;;;;;21.96;78.55;96552.52;1804801;78;21069;-84
2021/08/15 05:57:16;;;;;;;9.25;7.70;;;;;;;22.01;78.12;96555.23;1801886;78;21354;-84
2021/08/15 05:59:42;;;;;;;8.00;7.20;;;;;;;22.08;78.33;96543.14;1808601;78;21000;-84
2021/08/15 06:02:09;;;;;;;8.70;7.17;;;;;;;22.11;78.42;96546.61;1804812;78;20973;-84
2021/08/15 06:04:34;;;;;;;7.47;6.37;;;;;;;22.11;78.49;96546.61;1744654;78;21437;-84
2021/08/15 06:07:00;;;;;;;8.05;7.20;;;;;;;22.15;78.51;96546.41;1806726;78;20985;-84
2021/08/15 06:09:26;;;;;;;9.08;6.30;;;;;;;22.16;78.52;96546.67;1789915;77;20969;-84
2021/08/15 06:11:51;;;;;;;10.20;6.78;;;;;;;22.20;78.62;96549.61;1799621;78;21356;-84
2021/08/15 06:14:17;;;;;;;8.80;7.08;;;;;;;22.25;78.79;96554.94;1798487;77;21076;-84
2021/08/15 06:16:43;;;;;;;8.58;6.45;;;;;;;22.28;78.79;96551.78;1794126;78;21047;-85
2021/08/15 06:19:09;;;;;;;7.55;6.85;;;;;;;22.32;78.77;96549.73;1800260;78;21009;-85
2021/08/15 06:21:34;;;;;;;8.13;7.05;;;;;;;22.34;78.79;96548.16;1799388;77;21341;-85
2021/08/15 06:24:00;;;;;;;10.32;8.15;;;;;;;22.36;79.08;96553.46;1795878;78;21017;-84
2021/08/15 06:26:26;;;;;;;6.95;6.30;;;;;;;22.37;79.11;96551.61;1782131;78;20950;-84
2021/08/15 06:28:52;;;;;;;7.42;6.08;;;;;;;22.39;79.26;96550.30;1800650;78;21017;-84
2021/08/15 06:31:18;;;;;;;8.53;6.47;;;;;;;22.43;79.42;96547.42;1811668;78;21080;-84
2021/08/15 06:33:44;;;;;;;6.85;5.55;;;;;;;22.47;79.34;96545.09;1797431;78;21044;-84
2021/08/15 06:36:10;;;;;;;8.28;5.83;;;;;;;22.50;79.27;96554.38;1765511;79;21363;-85
2021/08/15 06:38:36;;;;;;;7.10;6.40;;;;;;;22.52;79.24;96552.27;1799927;78;21014;-84
2021/08/15 06:41:02;;;;;;;8.83;6.58;;;;;;;22.55;79.17;96559.17;1797477;78;21373;-84
2021/08/15 06:43:27;;;;;;;7.10;6.22;;;;;;;22.59;79.33;96562.11;1803216;78;20936;-85
2021/08/15 06:45:54;;;;;;;8.13;6.65;;;;;;;22.60;79.20;96553.91;1799010;79;20945;-84
2021/08/15 06:48:22;;;;;;;7.85;6.60;;;;;;;22.64;79.18;96557.67;1804562;78;22027;-84
2021/08/15 06:50:53;;;;;;;6.22;5.45;;;;;;;22.68;78.58;96552.12;1795979;78;20998;-83
2021/08/15 06:53:17;;;;;;;8.20;6.22;;;;;;;22.71;78.49;96560.88;1802689;78;21139;-83
2021/08/15 06:55:43;;;;;;;7.95;6.78;;;;;;;22.78;78.03;96558.03;1797253;77;21372;-84
2021/08/15 06:58:08;;;;;;;7.72;6.45;;;;;;;22.83;77.61;96550.14;1805602;78;20978;-83
2021/08/15 07:00:34;;;;;;;7.25;6.50;;;;;;;22.87;77.30;96551.22;1799472;78;20997;-83
2021/08/15 07:03:00;;;;;;;9.43;6.22;;;;;;;22.91;76.94;96552.30;1798522;78;21010;-84
2021/08/15 07:05:26;;;;;;;8.40;6.85;;;;;;;22.94;76.73;96549.16;1804935;78;21343;-83
2021/08/15 07:07:51;;;;;;;7.20;6.50;;;;;;;23.04;76.50;96555.03;1807349;78;21013;-83
2021/08/15 07:10:17;;;;;;;8.35;6.87;;;;;;;23.10;76.19;96555.32;1804660;78;20948;-83
2021/08/15 07:12:43;;;;;;;8.25;6.60;;;;;;;23.17;76.33;96555.91;1803378;78;21307;-83
2021/08/15 07:15:09;;;;;;;8.58;6.72;;;;;;;23.23;76.09;96556.19;1783180;79;20929;-84
2021/08/15 07:17:37;;;;;;;7.50;6.15;;;;;;;23.30;75.66;96560.75;1807749;78;20924;-84
2021/08/15 07:20:05;;;;;;;7.15;6.45;;;;;;;23.38;75.37;96554.14;1804929;78;20957;-83
2021/08/15 07:22:31;;;;;;;8.23;7.08;;;;;;;23.50;75.33;96559.23;1805844;78;20944;-83
2021/08/15 07:24:57;;;;;;;7.72;6.55;;;;;;;23.56;75.29;96562.17;1800436;78;20991;-83
2021/08/15 07:27:23;;;;;;;9.38;7.33;;;;;;;23.61;74.56;96555.61;1804004;78;20936;-84
2021/08/15 07:29:49;;;;;;;10.60;6.60;;;;;;;23.68;74.56;96554.83;1804944;78;21044;-84
2021/08/15 07:32:15;;;;;;;7.37;6.60;;;;;;;23.73;74.31;96554.83;1805901;78;20968;-84
2021/08/15 07:34:41;;;;;;;8.88;5.97;;;;;;;23.77;74.33;96554.60;1729051;81;21328;-83
2021/08/15 07:37:06;;;;;;;8.70;6.60;;;;;;;23.83;74.20;96558.85;1806418;78;21007;-83
2021/08/15 07:39:32;;;;;;;7.12;6.42;;;;;;;23.86;74.17;96560.18;1794931;78;21000;-83
2021/08/15 07:41:58;;;;;;;8.40;7.03;;;;;;;23.90;74.25;96563.37;1804031;78;21420;-83
2021/08/15 07:44:26;;;;;;;8.68;7.47;;;;;;;23.96;74.49;96564.20;1802030;78;20976;-83
2021/08/15 07:46:52;;;;;;;8.35;7.20;;;;;;;24.04;74.10;96562.34;1797132;78;21037;-83
2021/08/15 07:49:18;;;;;;;9.00;6.42;;;;;;;24.11;73.94;96563.44;1805908;79;22102;-84
2021/08/15 07:51:44;;;;;;;7.25;6.42;;;;;;;24.20;73.50;96565.82;1803121;78;20972;-83
2021/08/15 07:54:10;;;;;;;9.13;7.35;;;;;;;24.30;72.81;96562.42;1803840;78;21039;-84
2021/08/15 07:56:36;;;;;;;9.40;6.70;;;;;;;24.43;73.01;96561.38;1794217;79;20988;-84
2021/08/15 07:59:02;;;;;;;8.35;7.10;;;;;;;24.53;72.67;96561.36;1801264;78;20894;-84
2021/08/15 08:01:27;;;;;;;7.87;7.08;;;;;;;24.60;73.04;96560.31;1803902;78;20978;-84
2021/08/15 08:03:53;;;;;;;10.53;6.70;;;;;;;24.64;72.93;96563.48;1795721;79;20941;-83
2021/08/15 08:06:19;;;;;;;7.15;6.20;;;;;;;24.69;73.06;96560.03;1804156;78;21044;-84
2021/08/15 08:08:44;;;;;;;9.90;7.10;;;;;;;24.75;73.35;96561.10;1812699;78;20922;-83
2021/08/15 08:11:10;;;;;;;7.22;6.37;;;;;;;24.79;72.46;96556.84;1797976;78;20985;-83
2021/08/15 08:13:36;;;;;;;10.30;7.45;;;;;;;24.85;72.68;96561.07;1801090;78;20929;-83
2021/08/15 08:16:01;;;;;;;8.33;6.67;;;;;;;24.92;73.15;96560.02;1804674;78;20941;-84
2021/08/15 08:18:27;;;;;;;8.63;6.47;;;;;;;24.97;72.84;96556.81;1796716;78;21358;-83
2021/08/15 08:20:53;;;;;;;9.30;7.70;;;;;;;25.06;73.16;96557.90;1806777;78;20968;-83
2021/08/15 08:23:19;;;;;;;8.80;6.90;;;;;;;25.14;72.49;96557.33;1803210;78;21044;-85
2021/08/15 08:25:46;;;;;;;9.43;7.85;;;;;;;25.23;72.58;96559.45;1805774;78;20925;-86
2021/08/15 08:28:12;;;;;;;8.08;6.97;;;;;;;25.37;71.48;96551.93;1801604;78;21082;-85
2021/08/15 08:30:38;;;;;;;8.28;7.45;;;;;;;25.52;72.04;96551.08;1799551;78;21000;-85
2021/08/15 08:33:04;;;;;;;9.28;6.78;;;;;;;25.57;71.61;96545.76;1775749;79;21560;-85
2021/08/15 08:35:30;;;;;;;9.70;7.50;;;;;;;25.66;71.44;96540.11;1797939;78;21047;-86
2021/08/15 08:37:56;;;;;;;9.00;6.53;;;;;;;25.89;70.16;96543.23;1806092;78;21087;-85
2021/08/15 08:40:22;;;;;;;8.10;7.30;;;;;;;26.12;70.59;96543.88;1803821;78;20882;-86
2021/08/15 08:42:47;;;;;;;8.43;7.20;;;;;;;26.26;70.62;96541.39;1807876;78;21001;-86
2021/08/15 08:45:17;;;;;;;10.60;7.42;;;;;;;26.35;70.77;96535.73;1814186;78;20934;-86
2021/08/15 08:47:43;;;;;;;10.25;7.55;;;;;;;26.30;70.49;96535.22;1809925;79;21092;-85
2021/08/15 08:50:09;;;;;;;8.13;6.58;;;;;;;26.30;70.49;96535.22;1809418;78;20973;-85
2021/08/15 08:52:35;;;;;;;8.93;7.10;;;;;;;26.07;69.16;96541.25;1807830;78;20913;-86
2021/08/15 08:55:03;;;;;;;8.98;6.60;;;;;;;26.07;69.16;96541.25;1805204;78;21336;-86
2021/08/15 08:57:28;;;;;;;9.43;7.20;;;;;;;25.96;68.83;96547.17;1805481;78;20966;-85
2021/08/15 08:59:54;;;;;;;9.33;6.53;;;;;;;25.85;68.25;96542.17;1783823;79;20942;-85
2021/08/15 09:02:20;;;;;;;10.50;8.10;;;;;;;25.75;67.98;96551.02;1811901;78;22253;-86
2021/08/15 09:04:45;;;;;;;9.78;6.85;;;;;;;25.64;68.14;96555.55;1811070;78;20968;-86
2021/08/15 09:07:17;;;;;;;9.88;7.55;;;;;;;25.57;68.79;96555.60;1799933;78;20987;-85
2021/08/15 09:09:56;;;;;;;;;;;;;;;25.42;69.58;96555.13;1795854;78;21017;-86
2021/08/15 09:12:43;;;;;;;8.38;7.17;;;;;;;25.25;70.37;96559.97;1776363;79;20160;-86
2021/08/15 09:15:22;;;;;;;7.35;5.42;;;;;;;25.05;69.97;96551.49;1728229;79;20985;-85
2021/08/15 09:17:48;;;;;;;6.42;5.80;;;;;;;24.95;69.25;96553.63;1767529;80;21093;-85
2021/08/15 09:20:24;;;;;;;6.92;5.85;;;;;;;24.97;68.83;96558.14;1772412;80;21008;-85
2021/08/15 09:22:50;;;;;;;7.47;5.83;;;;;;;25.03;69.24;96545.12;1768914;79;21351;-85
2021/08/15 09:25:19;;;;;;;8.18;6.90;;;;;;;25.14;69.47;96544.03;1754046;79;20939;-86
2021/08/15 09:27:55;;;;;;;8.68;5.92;;;;;;;25.37;68.96;96539.16;1799011;78;21011;-86
2021/08/15 09:30:31;;;;;;;6.67;5.40;;;;;;;25.52;69.33;96531.66;1804409;78;20988;-84
2021/08/15 09:33:02;;;;;;;9.73;6.20;;;;;;;25.69;69.78;96526.81;1808525;78;21329;-84
2021/08/15 09:35:36;;;;;;;9.15;7.03;;;;;;;25.85;68.40;96526.20;1804911;78;21370;-84
2021/08/15 09:38:16;;;;;;;8.38;6.33;;;;;;;26.00;67.91;96516.25;1799625;78;20997;-83
2021/08/15 09:40:51;;;;;;;55.55;32.03;;;;;;;26.16;67.36;96513.48;1793304;78;20969;-83
2021/08/15 09:43:23;;;;;;;9.43;7.70;;;;;;;26.31;68.24;96504.05;1793970;78;21013;-84
2021/08/15 09:45:54;;;;;;;8.18;5.60;;;;;;;26.48;67.16;96510.33;1791491;78;20998;-83
2021/08/15 09:48:38;;;;;;;7.95;7.15;;;;;;;26.45;67.95;96518.89;1800802;78;21053;-83
2021/08/15 09:51:14;;;;;;;9.58;7.97;;;;;;;26.49;66.59;96523.91;1805189;78;20979;-84
2021/08/15 09:53:58;;;;;;;7.83;7.12;;;;;;;26.53;66.89;96530.30;1794642;79;20973;-85
2021/08/15 09:56:37;;;;;;;8.18;7.37;;;;;;;26.79;67.14;96513.52;1796717;79;21931;-85
2021/08/15 09:59:22;;;;;;;9.25;7.85;;;;;;;27.01;67.77;96511.20;1791799;78;20941;-84
2021/08/15 10:01:55;;;;;;;10.32;7.90;;;;;;;27.23;67.37;96508.55;1788465;79;21068;-84
2021/08/15 10:04:22;;;;;;;10.53;7.17;;;;;;;27.45;67.08;96507.47;1807951;78;20934;-84
2021/08/15 10:06:51;;;;;;;10.05;8.05;;;;;;;27.62;65.91;96501.66;1800821;78;20965;-84
2021/08/15 10:09:18;;;;;;;8.58;7.58;;;;;;;27.82;65.55;96500.06;1794751;78;21009;-84
2021/08/15 10:11:45;;;;;;;7.70;6.85;;;;;;;27.83;63.93;96500.34;1797836;78;21333;-84
2021/08/15 10:14:14;;;;;;;8.03;7.15;;;;;;;27.80;63.38;96499.56;1801893;78;21000;-84
2021/08/15 10:17:02;;;;;;;9.98;7.70;;;;;;;27.88;63.70;96490.91;1806427;78;20981;-84
2021/08/15 10:19:51;;;;;;;11.53;7.72;;;;;;;28.03;64.96;96496.57;1800125;79;21367;-83
2021/08/15 10:22:30;;;;;;;7.95;7.03;;;;;;;28.13;64.21;96492.39;1759857;80;20968;-84
2021/08/15 10:24:58;;;;;;;9.75;7.35;;;;;;;28.24;63.13;96479.67;1754051;80;20949;-84
2021/08/15 10:27:44;;;;;;;8.03;7.20;;;;;;;28.31;62.05;96485.45;1759787;80;20960;-84
2021/08/15 10:30:24;;;;;;;9.03;7.47;;;;;;;28.39;62.81;96486.14;1726247;81;21375;-84
2021/08/15 10:33:01;;;;;;;12.03;7.80;;;;;;;28.51;63.49;96485.14;1794434;79;21031;-84
2021/08/15 10:35:30;;;;;;;10.55;7.40;;;;;;;28.53;62.06;96480.29;1771522;80;21378;-84
2021/08/15 10:37:59;;;;;;;10.35;8.25;;;;;;;28.33;63.01;96481.44;1799140;79;21308;-84
2021/08/15 10:40:47;;;;;;;11.73;8.20;;;;;;;28.07;61.65;96485.01;1794974;78;21336;-84
2021/08/15 10:43:31;;;;;;;10.78;8.25;;;;;;;28.08;62.26;96483.12;1797046;78;21035;-83
2021/08/15 10:46:22;;;;;;;9.05;7.75;;;;;;;28.26;61.97;96468.18;1795057;78;21015;-84
2021/08/15 10:49:02;;;;;;;17.30;9.18;;;;;;;28.18;61.45;96480.86;1800342;78;20964;-83
2021/08/15 10:51:41;;;;;;;12.53;9.08;;;;;;;28.00;61.63;96476.59;1753628;80;20939;-83
2021/08/15 10:54:07;;;;;;;9.70;8.58;;;;;;;28.05;61.52;96473.03;1757931;80;21105;-85
2021/08/15 10:57:04;;;;;;;9.90;7.70;;;;;;;28.22;61.76;96468.49;1739097;81;21049;-84
2021/08/15 10:59:37;;;;;;;11.30;8.55;;;;;;;28.16;63.35;96469.67;1737128;81;21360;-84
2021/08/15 11:02:19;;;;;;;10.98;8.28;;;;;;;27.92;61.75;96471.89;1795767;79;21025;-84
2021/08/15 11:05:00;;;;;;;12.78;9.03;;;;;;;27.77;61.66;96474.78;1795843;78;21011;-82
2021/08/15 11:11:19;;;;;;;10.40;8.43;;;;;;;27.47;61.33;96474.62;1568653;88;21164;-84
2021/08/15 11:13:46;;;;;;;11.20;8.83;;;;;;;27.50;61.97;96465.52;1647434;82;21142;-84
2021/08/15 11:16:59;;;;;;;;;;;;;;;;;;;;;
2021/08/15 11:22:38;;;;;;;9.50;8.48;;;;;;;28.34;63.46;96458.17;1566275;90;21111;-85
2021/08/15 11:25:11;;;;;;;11.33;8.68;;;;;;;28.37;62.17;96455.70;1545912;92;21020;-84
2021/08/15 11:27:43;;;;;;;11.22;8.53;;;;;;;28.23;61.66;96456.72;1596502;86;21157;-84
2021/08/15 11:30:25;;;;;;;9.33;8.18;;;;;;;28.14;60.39;96452.57;1625907;87;20988;-84
2021/08/15 11:32:54;;;;;;;10.95;8.28;;;;;;;28.25;60.82;96448.66;1627884;87;21430;-85
2021/08/15 11:35:32;;;;;;;9.50;8.50;;;;;;;28.42;60.58;96448.68;1721383;82;20974;-84
2021/08/15 11:38:08;;;;;;;9.00;7.60;;;;;;;28.68;60.03;96449.82;1718058;78;21060;-84
2021/08/15 11:43:27;;;;;;;8.35;7.47;;;;;;;28.83;59.37;96450.88;1687986;83;21397;-84
2021/08/15 11:45:57;;;;;;;11.35;8.73;;;;;;;28.59;55.69;96453.70;1782315;78;20906;-84
2021/08/15 11:48:26;;;;;;;7.60;6.90;;;;;;;28.43;58.07;96449.72;1762316;81;20998;-85